Terminal Aerodrome Forecast
Issued by NWS

Home | Current Version | Previous Version | Text Only | Print | Product List | Glossary On
Versions: 1 2 3 4 5 6 7 8 9 10 11 12 13 14 15 16
000
FTUS43 KAPX 291741
TAFPLN
TAF
KPLN 291741Z 2918/3018 19015G30KT P6SM OVC150
     FM291900 19017G29KT 5SM -RA OVC060
     FM292000 20015G28KT 2SM -SN OVC025
     FM292200 20013G24KT P6SM OVC020
     FM300000 21011KT 1 1/2SM -SN OVC015
     FM300400 28018G28KT 5SM -SN OVC018
     FM300800 30019G28KT P6SM SCT030=

USA.gov is the U.S. government's official web portal to all federal, state and local government web resources and services.